sensor_id;sensor_type;location;lat;lon;timestamp;temperature;humidity
5041;DHT22;2539;52.568;13.364;2023-05-07T00:00:51;9.20;99.90
5041;DHT22;2539;52.568;13.364;2023-05-07T00:03:17;9.30;99.90
5041;DHT22;2539;52.568;13.364;2023-05-07T00:05:45;9.30;99.90
5041;DHT22;2539;52.568;13.364;2023-05-07T00:08:11;9.20;99.90
5041;DHT22;2539;52.568;13.364;2023-05-07T00:10:37;9.30;99.90
5041;DHT22;2539;52.568;13.364;2023-05-07T00:13:03;9.30;99.90
5041;DHT22;2539;52.568;13.364;2023-05-07T00:15:30;9.30;99.90
5041;DHT22;2539;52.568;13.364;2023-05-07T00:17:56;9.30;99.90
5041;DHT22;2539;52.568;13.364;2023-05-07T00:20:24;9.40;99.90
5041;DHT22;2539;52.568;13.364;2023-05-07T00:22:51;9.30;99.90
5041;DHT22;2539;52.568;13.364;2023-05-07T00:25:18;9.30;99.90
5041;DHT22;2539;52.568;13.364;2023-05-07T00:27:48;9.30;99.90
5041;DHT22;2539;52.568;13.364;2023-05-07T00:30:14;9.20;99.90
5041;DHT22;2539;52.568;13.364;2023-05-07T00:32:40;9.20;99.90
5041;DHT22;2539;52.568;13.364;2023-05-07T00:35:06;9.20;99.90
5041;DHT22;2539;52.568;13.364;2023-05-07T00:37:32;9.20;99.90
5041;DHT22;2539;52.568;13.364;2023-05-07T00:39:59;9.20;99.90
5041;DHT22;2539;52.568;13.364;2023-05-07T00:42:25;9.20;99.90
5041;DHT22;2539;52.568;13.364;2023-05-07T00:44:51;9.20;99.90
5041;DHT22;2539;52.568;13.364;2023-05-07T00:47:17;9.20;99.90
5041;DHT22;2539;52.568;13.364;2023-05-07T00:49:44;9.20;99.90
5041;DHT22;2539;52.568;13.364;2023-05-07T00:52:14;8.60;99.90
5041;DHT22;2539;52.568;13.364;2023-05-07T00:54:42;9.20;99.90
5041;DHT22;2539;52.568;13.364;2023-05-07T00:57:10;9.20;99.90
5041;DHT22;2539;52.568;13.364;2023-05-07T00:59:37;9.20;99.90
5041;DHT22;2539;52.568;13.364;2023-05-07T01:02:04;9.20;99.90
5041;DHT22;2539;52.568;13.364;2023-05-07T01:04:30;10.20;99.90
5041;DHT22;2539;52.568;13.364;2023-05-07T01:06:57;9.20;99.90
5041;DHT22;2539;52.568;13.364;2023-05-07T01:09:24;9.20;99.90
5041;DHT22;2539;52.568;13.364;2023-05-07T01:11:51;9.20;99.90
5041;DHT22;2539;52.568;13.364;2023-05-07T01:14:18;9.30;99.90
5041;DHT22;2539;52.568;13.364;2023-05-07T01:16:45;9.20;99.90
5041;DHT22;2539;52.568;13.364;2023-05-07T01:19:12;9.20;99.90
5041;DHT22;2539;52.568;13.364;2023-05-07T01:21:45;9.20;99.90
5041;DHT22;2539;52.568;13.364;2023-05-07T01:24:12;9.20;99.90
5041;DHT22;2539;52.568;13.364;2023-05-07T01:26:39;9.20;99.90
5041;DHT22;2539;52.568;13.364;2023-05-07T01:29:06;9.20;99.90
5041;DHT22;2539;52.568;13.364;2023-05-07T01:31:33;9.20;99.90
5041;DHT22;2539;52.568;13.364;2023-05-07T01:34:02;9.20;99.90
5041;DHT22;2539;52.568;13.364;2023-05-07T01:36:29;9.20;99.90
5041;DHT22;2539;52.568;13.364;2023-05-07T01:38:56;10.00;99.90
5041;DHT22;2539;52.568;13.364;2023-05-07T01:41:24;9.20;99.90
5041;DHT22;2539;52.568;13.364;2023-05-07T01:43:52;9.20;99.90
5041;DHT22;2539;52.568;13.364;2023-05-07T01:46:18;9.20;99.90
5041;DHT22;2539;52.568;13.364;2023-05-07T01:48:45;9.20;99.90
5041;DHT22;2539;52.568;13.364;2023-05-07T01:51:12;9.20;99.90
5041;DHT22;2539;52.568;13.364;2023-05-07T01:54:00;9.20;99.90
5041;DHT22;2539;52.568;13.364;2023-05-07T01:56:27;9.20;99.90
5041;DHT22;2539;52.568;13.364;2023-05-07T01:58:53;11.50;99.90
5041;DHT22;2539;52.568;13.364;2023-05-07T02:01:19;9.20;99.90
5041;DHT22;2539;52.568;13.364;2023-05-07T02:03:46;9.20;99.90
5041;DHT22;2539;52.568;13.364;2023-05-07T02:06:12;9.10;99.90
5041;DHT22;2539;52.568;13.364;2023-05-07T02:08:38;9.20;99.90
5041;DHT22;2539;52.568;13.364;2023-05-07T02:11:05;9.20;99.90
5041;DHT22;2539;52.568;13.364;2023-05-07T02:13:33;9.10;99.90
5041;DHT22;2539;52.568;13.364;2023-05-07T02:16:01;9.20;99.90
5041;DHT22;2539;52.568;13.364;2023-05-07T02:18:27;9.20;99.90
5041;DHT22;2539;52.568;13.364;2023-05-07T02:20:53;9.10;99.90
5041;DHT22;2539;52.568;13.364;2023-05-07T02:23:20;9.20;99.90
5041;DHT22;2539;52.568;13.364;2023-05-07T02:25:46;9.10;99.90
5041;DHT22;2539;52.568;13.364;2023-05-07T02:28:12;9.20;99.90
5041;DHT22;2539;52.568;13.364;2023-05-07T02:30:39;9.20;99.90
5041;DHT22;2539;52.568;13.364;2023-05-07T02:33:06;9.10;99.90
5041;DHT22;2539;52.568;13.364;2023-05-07T02:35:34;9.20;99.90
5041;DHT22;2539;52.568;13.364;2023-05-07T02:38:00;9.10;99.90
5041;DHT22;2539;52.568;13.364;2023-05-07T02:40:26;9.10;99.90
5041;DHT22;2539;52.568;13.364;2023-05-07T02:42:53;9.00;99.90
5041;DHT22;2539;52.568;13.364;2023-05-07T02:45:19;9.10;99.90
5041;DHT22;2539;52.568;13.364;2023-05-07T02:47:45;9.00;99.90
5041;DHT22;2539;52.568;13.364;2023-05-07T02:50:12;9.10;99.90
5041;DHT22;2539;52.568;13.364;2023-05-07T02:52:38;9.10;99.90
5041;DHT22;2539;52.568;13.364;2023-05-07T02:55:05;9.10;99.90
5041;DHT22;2539;52.568;13.364;2023-05-07T02:57:31;9.10;99.90
5041;DHT22;2539;52.568;13.364;2023-05-07T02:59:58;9.10;99.90
5041;DHT22;2539;52.568;13.364;2023-05-07T03:02:23;9.10;99.90
5041;DHT22;2539;52.568;13.364;2023-05-07T03:04:50;9.00;99.90
5041;DHT22;2539;52.568;13.364;2023-05-07T03:07:15;9.10;99.90
5041;DHT22;2539;52.568;13.364;2023-05-07T03:09:41;9.10;99.90
5041;DHT22;2539;52.568;13.364;2023-05-07T03:12:07;9.20;99.90
5041;DHT22;2539;52.568;13.364;2023-05-07T03:14:33;9.10;99.90
5041;DHT22;2539;52.568;13.364;2023-05-07T03:16:59;9.10;99.90
5041;DHT22;2539;52.568;13.364;2023-05-07T03:19:26;9.10;99.90
5041;DHT22;2539;52.568;13.364;2023-05-07T03:21:52;9.10;99.90
5041;DHT22;2539;52.568;13.364;2023-05-07T03:24:18;9.10;99.90
5041;DHT22;2539;52.568;13.364;2023-05-07T03:26:44;9.10;99.90
5041;DHT22;2539;52.568;13.364;2023-05-07T03:29:11;9.00;99.90
5041;DHT22;2539;52.568;13.364;2023-05-07T03:31:37;9.10;99.90
5041;DHT22;2539;52.568;13.364;2023-05-07T03:34:04;9.00;99.90
5041;DHT22;2539;52.568;13.364;2023-05-07T03:36:30;9.10;99.90
5041;DHT22;2539;52.568;13.364;2023-05-07T03:38:56;9.10;99.90
5041;DHT22;2539;52.568;13.364;2023-05-07T03:41:22;9.20;99.90
5041;DHT22;2539;52.568;13.364;2023-05-07T03:43:49;9.10;99.90
5041;DHT22;2539;52.568;13.364;2023-05-07T03:46:15;9.10;99.90
5041;DHT22;2539;52.568;13.364;2023-05-07T03:48:41;9.10;99.90
5041;DHT22;2539;52.568;13.364;2023-05-07T03:51:07;7.70;99.90
5041;DHT22;2539;52.568;13.364;2023-05-07T03:53:34;9.10;99.90
5041;DHT22;2539;52.568;13.364;2023-05-07T03:56:00;9.00;99.90
5041;DHT22;2539;52.568;13.364;2023-05-07T03:58:26;9.00;99.90
5041;DHT22;2539;52.568;13.364;2023-05-07T04:00:52;9.00;99.90
5041;DHT22;2539;52.568;13.364;2023-05-07T04:03:18;9.00;99.90
5041;DHT22;2539;52.568;13.364;2023-05-07T04:05:43;8.90;99.90
5041;DHT22;2539;52.568;13.364;2023-05-07T04:08:09;9.00;99.90
5041;DHT22;2539;52.568;13.364;2023-05-07T04:10:35;9.00;99.90
5041;DHT22;2539;52.568;13.364;2023-05-07T04:13:01;9.10;99.90
5041;DHT22;2539;52.568;13.364;2023-05-07T04:15:26;9.10;99.90
5041;DHT22;2539;52.568;13.364;2023-05-07T04:17:52;9.10;99.90
5041;DHT22;2539;52.568;13.364;2023-05-07T04:20:18;9.10;99.90
5041;DHT22;2539;52.568;13.364;2023-05-07T04:22:44;9.10;99.90
5041;DHT22;2539;52.568;13.364;2023-05-07T04:25:10;9.10;99.90
5041;DHT22;2539;52.568;13.364;2023-05-07T04:27:36;9.00;99.90
5041;DHT22;2539;52.568;13.364;2023-05-07T04:30:04;9.20;99.90
5041;DHT22;2539;52.568;13.364;2023-05-07T04:32:30;9.30;99.90
5041;DHT22;2539;52.568;13.364;2023-05-07T04:34:56;9.40;99.90
5041;DHT22;2539;52.568;13.364;2023-05-07T04:37:23;9.30;99.90
5041;DHT22;2539;52.568;13.364;2023-05-07T04:39:49;9.30;99.90
5041;DHT22;2539;52.568;13.364;2023-05-07T04:42:16;9.40;99.90
5041;DHT22;2539;52.568;13.364;2023-05-07T04:44:44;9.30;99.90
5041;DHT22;2539;52.568;13.364;2023-05-07T04:47:11;9.50;99.90
5041;DHT22;2539;52.568;13.364;2023-05-07T04:49:38;9.50;99.90
5041;DHT22;2539;52.568;13.364;2023-05-07T04:52:04;9.50;99.90
5041;DHT22;2539;52.568;13.364;2023-05-07T04:54:31;9.60;99.90
5041;DHT22;2539;52.568;13.364;2023-05-07T04:56:57;9.70;99.90
5041;DHT22;2539;52.568;13.364;2023-05-07T04:59:23;9.70;99.90
5041;DHT22;2539;52.568;13.364;2023-05-07T05:04:16;9.70;99.90
5041;DHT22;2539;52.568;13.364;2023-05-07T05:06:42;9.70;99.90
5041;DHT22;2539;52.568;13.364;2023-05-07T05:09:08;9.70;99.90
5041;DHT22;2539;52.568;13.364;2023-05-07T05:11:35;9.80;99.90
5041;DHT22;2539;52.568;13.364;2023-05-07T05:14:01;9.90;99.90
5041;DHT22;2539;52.568;13.364;2023-05-07T05:16:28;9.90;99.90
5041;DHT22;2539;52.568;13.364;2023-05-07T05:18:54;10.00;99.90
5041;DHT22;2539;52.568;13.364;2023-05-07T05:21:20;10.00;99.90
5041;DHT22;2539;52.568;13.364;2023-05-07T05:23:47;10.00;99.90
5041;DHT22;2539;52.568;13.364;2023-05-07T05:26:13;10.20;99.90
5041;DHT22;2539;52.568;13.364;2023-05-07T05:28:39;10.40;99.90
5041;DHT22;2539;52.568;13.364;2023-05-07T05:33:32;10.60;99.90
5041;DHT22;2539;52.568;13.364;2023-05-07T05:35:59;10.60;99.90
5041;DHT22;2539;52.568;13.364;2023-05-07T05:38:25;10.60;99.90
5041;DHT22;2539;52.568;13.364;2023-05-07T05:40:52;10.70;99.90
5041;DHT22;2539;52.568;13.364;2023-05-07T05:43:18;10.70;99.90
5041;DHT22;2539;52.568;13.364;2023-05-07T05:45:44;10.70;99.90
5041;DHT22;2539;52.568;13.364;2023-05-07T05:48:11;10.70;99.90
5041;DHT22;2539;52.568;13.364;2023-05-07T05:50:37;10.90;99.90
5041;DHT22;2539;52.568;13.364;2023-05-07T05:53:04;10.80;99.90
5041;DHT22;2539;52.568;13.364;2023-05-07T05:55:30;10.90;99.90
5041;DHT22;2539;52.568;13.364;2023-05-07T05:58:00;10.90;99.90
5041;DHT22;2539;52.568;13.364;2023-05-07T06:00:29;10.90;99.90
5041;DHT22;2539;52.568;13.364;2023-05-07T06:02:56;11.00;99.90
5041;DHT22;2539;52.568;13.364;2023-05-07T06:05:22;11.10;99.90
5041;DHT22;2539;52.568;13.364;2023-05-07T06:07:48;11.20;99.90
5041;DHT22;2539;52.568;13.364;2023-05-07T06:10:15;11.30;99.90
5041;DHT22;2539;52.568;13.364;2023-05-07T06:12:41;11.10;99.90
5041;DHT22;2539;52.568;13.364;2023-05-07T06:15:07;11.00;99.90
5041;DHT22;2539;52.568;13.364;2023-05-07T06:17:34;11.10;99.90
5041;DHT22;2539;52.568;13.364;2023-05-07T06:20:00;11.10;99.90
5041;DHT22;2539;52.568;13.364;2023-05-07T06:22:26;11.10;99.90
5041;DHT22;2539;52.568;13.364;2023-05-07T06:24:52;11.20;99.90
5041;DHT22;2539;52.568;13.364;2023-05-07T06:27:19;11.30;99.90
5041;DHT22;2539;52.568;13.364;2023-05-07T06:29:45;11.40;99.90
5041;DHT22;2539;52.568;13.364;2023-05-07T06:32:12;11.50;99.90
5041;DHT22;2539;52.568;13.364;2023-05-07T06:34:40;11.60;99.90
5041;DHT22;2539;52.568;13.364;2023-05-07T06:37:06;11.60;99.90
5041;DHT22;2539;52.568;13.364;2023-05-07T06:39:33;11.90;99.90
5041;DHT22;2539;52.568;13.364;2023-05-07T06:42:00;11.90;99.90
5041;DHT22;2539;52.568;13.364;2023-05-07T06:44:27;11.80;99.90
5041;DHT22;2539;52.568;13.364;2023-05-07T06:46:53;11.90;99.90
5041;DHT22;2539;52.568;13.364;2023-05-07T06:49:19;11.80;99.90
5041;DHT22;2539;52.568;13.364;2023-05-07T06:51:47;11.90;99.90
5041;DHT22;2539;52.568;13.364;2023-05-07T06:54:13;11.90;99.90
5041;DHT22;2539;52.568;13.364;2023-05-07T06:56:39;12.00;99.90
5041;DHT22;2539;52.568;13.364;2023-05-07T06:59:06;14.60;99.90
5041;DHT22;2539;52.568;13.364;2023-05-07T07:01:32;12.10;99.90
5041;DHT22;2539;52.568;13.364;2023-05-07T07:03:59;12.30;99.90
5041;DHT22;2539;52.568;13.364;2023-05-07T07:06:25;12.20;99.90
5041;DHT22;2539;52.568;13.364;2023-05-07T07:08:51;12.20;99.90
5041;DHT22;2539;52.568;13.364;2023-05-07T07:11:18;12.30;99.90
5041;DHT22;2539;52.568;13.364;2023-05-07T07:13:44;12.20;99.90
5041;DHT22;2539;52.568;13.364;2023-05-07T07:16:10;12.00;99.90
5041;DHT22;2539;52.568;13.364;2023-05-07T07:18:36;11.60;99.90
5041;DHT22;2539;52.568;13.364;2023-05-07T07:21:03;11.90;99.90
5041;DHT22;2539;52.568;13.364;2023-05-07T07:23:29;12.20;99.90
5041;DHT22;2539;52.568;13.364;2023-05-07T07:25:56;12.40;99.90
5041;DHT22;2539;52.568;13.364;2023-05-07T07:28:22;12.30;99.90
5041;DHT22;2539;52.568;13.364;2023-05-07T07:30:48;12.40;99.90
5041;DHT22;2539;52.568;13.364;2023-05-07T07:33:16;12.20;99.90
5041;DHT22;2539;52.568;13.364;2023-05-07T07:35:43;12.30;99.90
5041;DHT22;2539;52.568;13.364;2023-05-07T07:38:09;12.10;99.90
5041;DHT22;2539;52.568;13.364;2023-05-07T07:40:35;12.20;99.90
5041;DHT22;2539;52.568;13.364;2023-05-07T07:43:01;12.20;99.90
5041;DHT22;2539;52.568;13.364;2023-05-07T07:45:28;12.00;99.90
5041;DHT22;2539;52.568;13.364;2023-05-07T07:47:54;11.90;99.90
5041;DHT22;2539;52.568;13.364;2023-05-07T07:50:20;12.00;99.90
5041;DHT22;2539;52.568;13.364;2023-05-07T07:52:48;12.00;99.90
5041;DHT22;2539;52.568;13.364;2023-05-07T07:55:14;12.10;99.90
5041;DHT22;2539;52.568;13.364;2023-05-07T07:57:46;12.10;99.90
5041;DHT22;2539;52.568;13.364;2023-05-07T08:00:13;12.10;99.90
5041;DHT22;2539;52.568;13.364;2023-05-07T08:02:39;12.20;99.90
5041;DHT22;2539;52.568;13.364;2023-05-07T08:05:06;12.10;99.90
5041;DHT22;2539;52.568;13.364;2023-05-07T08:07:33;12.30;99.90
5041;DHT22;2539;52.568;13.364;2023-05-07T08:09:59;12.40;99.90
5041;DHT22;2539;52.568;13.364;2023-05-07T08:12:24;12.30;99.90
5041;DHT22;2539;52.568;13.364;2023-05-07T08:14:50;12.50;99.90
5041;DHT22;2539;52.568;13.364;2023-05-07T08:17:16;12.50;99.90
5041;DHT22;2539;52.568;13.364;2023-05-07T08:19:43;12.60;99.90
5041;DHT22;2539;52.568;13.364;2023-05-07T08:22:11;12.70;99.90
5041;DHT22;2539;52.568;13.364;2023-05-07T08:24:37;12.80;99.90
5041;DHT22;2539;52.568;13.364;2023-05-07T08:27:04;12.80;99.90
5041;DHT22;2539;52.568;13.364;2023-05-07T08:29:30;12.70;99.90
5041;DHT22;2539;52.568;13.364;2023-05-07T08:31:57;12.80;99.90
5041;DHT22;2539;52.568;13.364;2023-05-07T08:34:24;13.10;99.90
5041;DHT22;2539;52.568;13.364;2023-05-07T08:36:49;13.20;99.90
5041;DHT22;2539;52.568;13.364;2023-05-07T08:39:16;13.30;99.90
5041;DHT22;2539;52.568;13.364;2023-05-07T08:41:44;13.50;99.90
5041;DHT22;2539;52.568;13.364;2023-05-07T08:44:12;13.70;99.90
5041;DHT22;2539;52.568;13.364;2023-05-07T08:46:41;14.10;99.90
5041;DHT22;2539;52.568;13.364;2023-05-07T08:49:07;14.10;99.90
5041;DHT22;2539;52.568;13.364;2023-05-07T08:51:34;14.10;99.90
5041;DHT22;2539;52.568;13.364;2023-05-07T08:54:01;14.10;99.90
5041;DHT22;2539;52.568;13.364;2023-05-07T08:56:28;14.30;99.90
5041;DHT22;2539;52.568;13.364;2023-05-07T08:58:54;14.30;99.90
5041;DHT22;2539;52.568;13.364;2023-05-07T09:01:24;14.20;99.90
5041;DHT22;2539;52.568;13.364;2023-05-07T09:03:51;14.10;99.90
5041;DHT22;2539;52.568;13.364;2023-05-07T09:06:18;14.20;99.90
5041;DHT22;2539;52.568;13.364;2023-05-07T09:08:51;14.40;99.90
5041;DHT22;2539;52.568;13.364;2023-05-07T09:11:20;14.10;99.90
5041;DHT22;2539;52.568;13.364;2023-05-07T09:13:46;14.40;99.90
5041;DHT22;2539;52.568;13.364;2023-05-07T09:16:13;14.30;99.90
5041;DHT22;2539;52.568;13.364;2023-05-07T09:18:43;14.30;99.90
5041;DHT22;2539;52.568;13.364;2023-05-07T09:21:16;14.50;99.90
5041;DHT22;2539;52.568;13.364;2023-05-07T09:23:43;14.60;99.90
5041;DHT22;2539;52.568;13.364;2023-05-07T09:26:09;14.50;99.90
5041;DHT22;2539;52.568;13.364;2023-05-07T09:28:39;14.60;99.90
5041;DHT22;2539;52.568;13.364;2023-05-07T09:31:06;14.60;99.90
5041;DHT22;2539;52.568;13.364;2023-05-07T09:33:32;14.60;99.90
5041;DHT22;2539;52.568;13.364;2023-05-07T09:36:02;14.70;99.90
5041;DHT22;2539;52.568;13.364;2023-05-07T09:38:29;16.30;99.90
5041;DHT22;2539;52.568;13.364;2023-05-07T09:41:07;14.80;99.90
5041;DHT22;2539;52.568;13.364;2023-05-07T09:43:34;14.90;99.90
5041;DHT22;2539;52.568;13.364;2023-05-07T09:46:06;14.90;99.90
5041;DHT22;2539;52.568;13.364;2023-05-07T09:48:37;15.10;99.90
5041;DHT22;2539;52.568;13.364;2023-05-07T09:51:12;15.30;99.90
5041;DHT22;2539;52.568;13.364;2023-05-07T09:53:41;15.40;99.90
5041;DHT22;2539;52.568;13.364;2023-05-07T09:56:09;15.30;99.90
5041;DHT22;2539;52.568;13.364;2023-05-07T09:58:37;15.20;99.90
5041;DHT22;2539;52.568;13.364;2023-05-07T10:01:05;15.20;99.90
5041;DHT22;2539;52.568;13.364;2023-05-07T10:03:33;15.00;99.90
5041;DHT22;2539;52.568;13.364;2023-05-07T10:06:03;15.00;99.90
5041;DHT22;2539;52.568;13.364;2023-05-07T10:08:31;14.80;99.90
5041;DHT22;2539;52.568;13.364;2023-05-07T10:10:57;14.70;99.90
5041;DHT22;2539;52.568;13.364;2023-05-07T10:13:24;14.50;99.90
5041;DHT22;2539;52.568;13.364;2023-05-07T10:15:50;14.60;99.90
5041;DHT22;2539;52.568;13.364;2023-05-07T10:18:18;14.40;99.90
5041;DHT22;2539;52.568;13.364;2023-05-07T10:20:49;14.60;99.90
5041;DHT22;2539;52.568;13.364;2023-05-07T10:23:19;14.90;99.90
5041;DHT22;2539;52.568;13.364;2023-05-07T10:25:49;15.00;99.90
5041;DHT22;2539;52.568;13.364;2023-05-07T10:28:16;15.20;99.90
5041;DHT22;2539;52.568;13.364;2023-05-07T10:30:58;15.30;99.90
5041;DHT22;2539;52.568;13.364;2023-05-07T10:33:29;15.50;99.90
5041;DHT22;2539;52.568;13.364;2023-05-07T10:36:00;15.40;99.90
5041;DHT22;2539;52.568;13.364;2023-05-07T10:38:27;15.50;99.90
5041;DHT22;2539;52.568;13.364;2023-05-07T10:40:54;15.90;99.90
5041;DHT22;2539;52.568;13.364;2023-05-07T10:43:21;15.80;99.90
5041;DHT22;2539;52.568;13.364;2023-05-07T10:46:14;15.80;99.90
5041;DHT22;2539;52.568;13.364;2023-05-07T10:51:27;15.90;99.90
5041;DHT22;2539;52.568;13.364;2023-05-07T10:56:41;16.10;99.90
5041;DHT22;2539;52.568;13.364;2023-05-07T11:02:05;16.20;99.90
5041;DHT22;2539;52.568;13.364;2023-05-07T11:04:33;16.00;99.90
5041;DHT22;2539;52.568;13.364;2023-05-07T11:10:04;15.70;99.90
5041;DHT22;2539;52.568;13.364;2023-05-07T11:15:10;15.40;99.90
5041;DHT22;2539;52.568;13.364;2023-05-07T11:17:54;15.40;99.90
5041;DHT22;2539;52.568;13.364;2023-05-07T11:20:46;15.50;99.90
5041;DHT22;2539;52.568;13.364;2023-05-07T11:26:06;16.40;99.90
5041;DHT22;2539;52.568;13.364;2023-05-07T11:28:40;16.30;99.90
5041;DHT22;2539;52.568;13.364;2023-05-07T11:31:07;15.90;99.90
5041;DHT22;2539;52.568;13.364;2023-05-07T11:33:34;15.60;99.90
5041;DHT22;2539;52.568;13.364;2023-05-07T11:36:02;15.30;99.90
5041;DHT22;2539;52.568;13.364;2023-05-07T11:38:30;15.50;99.90
5041;DHT22;2539;52.568;13.364;2023-05-07T11:41:00;15.80;99.90
5041;DHT22;2539;52.568;13.364;2023-05-07T11:43:27;16.40;99.90
5041;DHT22;2539;52.568;13.364;2023-05-07T11:45:54;17.00;99.90
5041;DHT22;2539;52.568;13.364;2023-05-07T11:48:21;16.90;99.90
5041;DHT22;2539;52.568;13.364;2023-05-07T11:50:52;16.70;99.90
5041;DHT22;2539;52.568;13.364;2023-05-07T11:53:19;16.60;99.90
5041;DHT22;2539;52.568;13.364;2023-05-07T11:55:45;16.50;99.90
5041;DHT22;2539;52.568;13.364;2023-05-07T11:58:12;16.50;99.90
5041;DHT22;2539;52.568;13.364;2023-05-07T12:00:52;16.60;99.90
5041;DHT22;2539;52.568;13.364;2023-05-07T12:03:19;16.80;99.90
5041;DHT22;2539;52.568;13.364;2023-05-07T12:05:46;16.60;99.90
5041;DHT22;2539;52.568;13.364;2023-05-07T12:08:17;16.40;99.90
5041;DHT22;2539;52.568;13.364;2023-05-07T12:10:45;16.10;99.90
5041;DHT22;2539;52.568;13.364;2023-05-07T12:13:24;16.10;99.90
5041;DHT22;2539;52.568;13.364;2023-05-07T12:15:51;16.00;99.90
5041;DHT22;2539;52.568;13.364;2023-05-07T12:18:18;16.20;99.90
5041;DHT22;2539;52.568;13.364;2023-05-07T12:20:45;16.50;99.90
5041;DHT22;2539;52.568;13.364;2023-05-07T12:23:12;16.80;99.90
5041;DHT22;2539;52.568;13.364;2023-05-07T12:25:39;17.00;99.90
5041;DHT22;2539;52.568;13.364;2023-05-07T12:28:07;16.60;99.90
5041;DHT22;2539;52.568;13.364;2023-05-07T12:30:40;16.50;99.90
5041;DHT22;2539;52.568;13.364;2023-05-07T12:33:06;16.40;99.90
5041;DHT22;2539;52.568;13.364;2023-05-07T12:35:39;16.50;99.90
5041;DHT22;2539;52.568;13.364;2023-05-07T12:38:13;16.70;99.90
5041;DHT22;2539;52.568;13.364;2023-05-07T12:40:41;16.80;99.90
5041;DHT22;2539;52.568;13.364;2023-05-07T12:43:25;16.80;99.90
5041;DHT22;2539;52.568;13.364;2023-05-07T12:45:54;16.90;99.90
5041;DHT22;2539;52.568;13.364;2023-05-07T12:48:21;16.80;99.90
5041;DHT22;2539;52.568;13.364;2023-05-07T12:50:51;16.90;99.90
5041;DHT22;2539;52.568;13.364;2023-05-07T12:53:21;16.90;99.90
5041;DHT22;2539;52.568;13.364;2023-05-07T12:55:49;17.00;99.90
5041;DHT22;2539;52.568;13.364;2023-05-07T12:58:27;17.10;99.90
5041;DHT22;2539;52.568;13.364;2023-05-07T13:00:55;17.10;99.90
5041;DHT22;2539;52.568;13.364;2023-05-07T13:03:29;16.80;99.90
5041;DHT22;2539;52.568;13.364;2023-05-07T13:05:58;16.90;99.90
5041;DHT22;2539;52.568;13.364;2023-05-07T13:08:36;16.80;99.90
5041;DHT22;2539;52.568;13.364;2023-05-07T13:11:04;17.50;99.90
5041;DHT22;2539;52.568;13.364;2023-05-07T13:13:31;16.70;99.90
5041;DHT22;2539;52.568;13.364;2023-05-07T13:15:57;16.80;99.90
5041;DHT22;2539;52.568;13.364;2023-05-07T13:18:29;17.00;99.90
5041;DHT22;2539;52.568;13.364;2023-05-07T13:20:55;17.10;99.90
5041;DHT22;2539;52.568;13.364;2023-05-07T13:23:21;16.90;99.90
5041;DHT22;2539;52.568;13.364;2023-05-07T13:25:48;17.00;99.90
5041;DHT22;2539;52.568;13.364;2023-05-07T13:28:15;17.00;99.90
5041;DHT22;2539;52.568;13.364;2023-05-07T13:30:41;17.10;99.90
5041;DHT22;2539;52.568;13.364;2023-05-07T13:33:08;17.30;99.90
5041;DHT22;2539;52.568;13.364;2023-05-07T13:35:34;17.40;99.90
5041;DHT22;2539;52.568;13.364;2023-05-07T13:38:01;17.30;99.90
5041;DHT22;2539;52.568;13.364;2023-05-07T13:40:27;17.20;99.90
5041;DHT22;2539;52.568;13.364;2023-05-07T13:42:54;17.30;99.90
5041;DHT22;2539;52.568;13.364;2023-05-07T13:45:20;17.50;99.60
5041;DHT22;2539;52.568;13.364;2023-05-07T13:47:47;17.60;99.60
5041;DHT22;2539;52.568;13.364;2023-05-07T13:50:15;17.70;99.50
5041;DHT22;2539;52.568;13.364;2023-05-07T13:52:45;17.90;99.40
5041;DHT22;2539;52.568;13.364;2023-05-07T13:55:20;18.00;98.50
5041;DHT22;2539;52.568;13.364;2023-05-07T13:57:47;17.80;98.70
5041;DHT22;2539;52.568;13.364;2023-05-07T14:00:14;17.50;99.40
5041;DHT22;2539;52.568;13.364;2023-05-07T14:02:41;17.30;99.90
5041;DHT22;2539;52.568;13.364;2023-05-07T14:05:07;17.30;99.90
5041;DHT22;2539;52.568;13.364;2023-05-07T14:07:34;17.40;99.70
5041;DHT22;2539;52.568;13.364;2023-05-07T14:09:59;17.40;99.70
5041;DHT22;2539;52.568;13.364;2023-05-07T14:12:25;17.50;99.90
5041;DHT22;2539;52.568;13.364;2023-05-07T14:14:51;17.50;99.50
5041;DHT22;2539;52.568;13.364;2023-05-07T14:17:18;17.40;99.60
5041;DHT22;2539;52.568;13.364;2023-05-07T14:19:44;17.10;99.80
5041;DHT22;2539;52.568;13.364;2023-05-07T14:22:10;16.90;99.90
5041;DHT22;2539;52.568;13.364;2023-05-07T14:24:37;16.60;99.90
5041;DHT22;2539;52.568;13.364;2023-05-07T14:27:04;16.90;99.90
5041;DHT22;2539;52.568;13.364;2023-05-07T14:29:31;17.20;99.90
5041;DHT22;2539;52.568;13.364;2023-05-07T14:31:58;17.50;99.90
5041;DHT22;2539;52.568;13.364;2023-05-07T14:34:24;18.10;99.50
5041;DHT22;2539;52.568;13.364;2023-05-07T14:36:50;18.10;98.10
5041;DHT22;2539;52.568;13.364;2023-05-07T14:39:17;17.90;98.50
5041;DHT22;2539;52.568;13.364;2023-05-07T14:41:44;18.30;98.60
5041;DHT22;2539;52.568;13.364;2023-05-07T14:44:10;18.10;97.60
5041;DHT22;2539;52.568;13.364;2023-05-07T14:46:36;17.10;98.10
5041;DHT22;2539;52.568;13.364;2023-05-07T14:49:02;17.80;98.50
5041;DHT22;2539;52.568;13.364;2023-05-07T14:51:29;17.70;98.60
5041;DHT22;2539;52.568;13.364;2023-05-07T14:53:55;17.90;98.50
5041;DHT22;2539;52.568;13.364;2023-05-07T14:56:22;17.90;98.40
5041;DHT22;2539;52.568;13.364;2023-05-07T14:58:48;17.90;98.60
5041;DHT22;2539;52.568;13.364;2023-05-07T15:01:15;17.60;99.20
5041;DHT22;2539;52.568;13.364;2023-05-07T15:03:41;17.60;99.30
5041;DHT22;2539;52.568;13.364;2023-05-07T15:06:07;17.60;99.40
5041;DHT22;2539;52.568;13.364;2023-05-07T15:08:33;17.40;99.80
5041;DHT22;2539;52.568;13.364;2023-05-07T15:11:00;17.20;99.80
5041;DHT22;2539;52.568;13.364;2023-05-07T15:13:26;16.90;99.90
5041;DHT22;2539;52.568;13.364;2023-05-07T15:15:52;16.90;99.90
5041;DHT22;2539;52.568;13.364;2023-05-07T15:18:18;17.10;99.90
5041;DHT22;2539;52.568;13.364;2023-05-07T15:20:44;17.80;99.90
5041;DHT22;2539;52.568;13.364;2023-05-07T15:23:10;17.70;99.20
5041;DHT22;2539;52.568;13.364;2023-05-07T15:25:37;17.60;99.40
5041;DHT22;2539;52.568;13.364;2023-05-07T15:28:03;17.40;99.70
5041;DHT22;2539;52.568;13.364;2023-05-07T15:30:29;17.50;99.40
5041;DHT22;2539;52.568;13.364;2023-05-07T15:32:56;17.80;98.90
5041;DHT22;2539;52.568;13.364;2023-05-07T15:35:22;17.80;98.90
5041;DHT22;2539;52.568;13.364;2023-05-07T15:37:49;18.00;98.60
5041;DHT22;2539;52.568;13.364;2023-05-07T15:40:16;17.80;98.50
5041;DHT22;2539;52.568;13.364;2023-05-07T15:42:44;18.10;98.50
5041;DHT22;2539;52.568;13.364;2023-05-07T15:45:11;19.30;97.30
5041;DHT22;2539;52.568;13.364;2023-05-07T15:47:37;20.40;95.30
5041;DHT22;2539;52.568;13.364;2023-05-07T15:50:04;20.80;92.50
5041;DHT22;2539;52.568;13.364;2023-05-07T15:52:31;20.90;90.10
5041;DHT22;2539;52.568;13.364;2023-05-07T15:54:57;20.00;90.40
5041;DHT22;2539;52.568;13.364;2023-05-07T15:57:24;19.10;92.30
5041;DHT22;2539;52.568;13.364;2023-05-07T15:59:50;18.30;94.00
5041;DHT22;2539;52.568;13.364;2023-05-07T16:02:17;17.70;95.60
5041;DHT22;2539;52.568;13.364;2023-05-07T16:04:42;18.00;96.50
5041;DHT22;2539;52.568;13.364;2023-05-07T16:07:08;17.50;93.60
5041;DHT22;2539;52.568;13.364;2023-05-07T16:09:34;20.30;91.70
5041;DHT22;2539;52.568;13.364;2023-05-07T16:12:00;21.40;89.30
5041;DHT22;2539;52.568;13.364;2023-05-07T16:14:26;22.00;83.20